sensor_id;sensor_type;location;lat;lon;timestamp;temperature;humidity
8008;DHT22;4049;49.468;11.200;2024-01-11T00:02:10;-5.70;99.90
8008;DHT22;4049;49.468;11.200;2024-01-11T00:04:36;-5.70;99.90
8008;DHT22;4049;49.468;11.200;2024-01-11T00:07:05;-5.80;99.90
8008;DHT22;4049;49.468;11.200;2024-01-11T00:09:33;-5.70;99.90
8008;DHT22;4049;49.468;11.200;2024-01-11T00:12:00;-5.80;99.90
8008;DHT22;4049;49.468;11.200;2024-01-11T00:14:26;-5.80;99.90
8008;DHT22;4049;49.468;11.200;2024-01-11T00:16:53;-5.80;99.90
8008;DHT22;4049;49.468;11.200;2024-01-11T00:19:21;-5.90;99.90
8008;DHT22;4049;49.468;11.200;2024-01-11T00:21:48;-5.90;99.90
8008;DHT22;4049;49.468;11.200;2024-01-11T00:24:15;-5.90;99.90
8008;DHT22;4049;49.468;11.200;2024-01-11T00:26:42;-6.00;99.90
8008;DHT22;4049;49.468;11.200;2024-01-11T00:29:09;-6.00;99.90
8008;DHT22;4049;49.468;11.200;2024-01-11T00:31:36;-6.00;99.90
8008;DHT22;4049;49.468;11.200;2024-01-11T00:34:05;-6.00;99.90
8008;DHT22;4049;49.468;11.200;2024-01-11T00:36:33;-6.00;99.90
8008;DHT22;4049;49.468;11.200;2024-01-11T00:39:00;-6.00;99.90
8008;DHT22;4049;49.468;11.200;2024-01-11T00:41:27;-6.00;99.90
8008;DHT22;4049;49.468;11.200;2024-01-11T00:43:53;-6.00;99.90
8008;DHT22;4049;49.468;11.200;2024-01-11T00:46:20;-6.00;99.90
8008;DHT22;4049;49.468;11.200;2024-01-11T00:48:47;-6.00;99.90
8008;DHT22;4049;49.468;11.200;2024-01-11T00:51:15;-5.90;99.90
8008;DHT22;4049;49.468;11.200;2024-01-11T00:53:43;-5.90;99.90
8008;DHT22;4049;49.468;11.200;2024-01-11T00:56:15;-5.90;99.90
8008;DHT22;4049;49.468;11.200;2024-01-11T00:58:42;-5.90;99.90
8008;DHT22;4049;49.468;11.200;2024-01-11T01:01:10;-5.90;99.90
8008;DHT22;4049;49.468;11.200;2024-01-11T01:03:37;-5.80;99.90
8008;DHT22;4049;49.468;11.200;2024-01-11T01:06:04;-5.80;99.90
8008;DHT22;4049;49.468;11.200;2024-01-11T01:08:31;-5.80;99.90
8008;DHT22;4049;49.468;11.200;2024-01-11T01:11:00;-5.80;99.90
8008;DHT22;4049;49.468;11.200;2024-01-11T01:13:26;-5.70;99.90
8008;DHT22;4049;49.468;11.200;2024-01-11T01:15:54;-5.70;99.90
8008;DHT22;4049;49.468;11.200;2024-01-11T01:18:21;-5.70;99.90
8008;DHT22;4049;49.468;11.200;2024-01-11T01:20:48;-5.70;99.90
8008;DHT22;4049;49.468;11.200;2024-01-11T01:23:15;-5.60;99.90
8008;DHT22;4049;49.468;11.200;2024-01-11T01:25:42;-5.60;99.90
8008;DHT22;4049;49.468;11.200;2024-01-11T01:28:10;-5.60;99.90
8008;DHT22;4049;49.468;11.200;2024-01-11T01:30:37;-5.60;99.90
8008;DHT22;4049;49.468;11.200;2024-01-11T01:33:04;-5.70;99.90
8008;DHT22;4049;49.468;11.200;2024-01-11T01:35:30;-5.70;99.90
8008;DHT22;4049;49.468;11.200;2024-01-11T01:37:57;-5.60;99.90
8008;DHT22;4049;49.468;11.200;2024-01-11T01:40:24;-5.60;99.90
8008;DHT22;4049;49.468;11.200;2024-01-11T01:42:58;-5.60;99.90
8008;DHT22;4049;49.468;11.200;2024-01-11T01:45:26;-5.60;99.90
8008;DHT22;4049;49.468;11.200;2024-01-11T01:47:53;-5.60;99.90
8008;DHT22;4049;49.468;11.200;2024-01-11T01:50:21;-5.60;99.90
8008;DHT22;4049;49.468;11.200;2024-01-11T01:52:49;-5.60;99.90
8008;DHT22;4049;49.468;11.200;2024-01-11T01:55:19;-5.70;99.90
8008;DHT22;4049;49.468;11.200;2024-01-11T01:57:47;-5.70;99.90
8008;DHT22;4049;49.468;11.200;2024-01-11T02:00:14;-5.70;99.90
8008;DHT22;4049;49.468;11.200;2024-01-11T02:02:43;-5.70;99.90
8008;DHT22;4049;49.468;11.200;2024-01-11T02:05:14;-5.80;99.90
8008;DHT22;4049;49.468;11.200;2024-01-11T02:07:41;-5.80;99.90
8008;DHT22;4049;49.468;11.200;2024-01-11T02:10:08;-5.80;99.90
8008;DHT22;4049;49.468;11.200;2024-01-11T02:12:35;-5.90;99.90
8008;DHT22;4049;49.468;11.200;2024-01-11T02:15:03;-5.90;99.90
8008;DHT22;4049;49.468;11.200;2024-01-11T02:17:31;-5.90;99.90
8008;DHT22;4049;49.468;11.200;2024-01-11T02:20:00;-5.90;99.90
8008;DHT22;4049;49.468;11.200;2024-01-11T02:22:30;-6.00;99.90
8008;DHT22;4049;49.468;11.200;2024-01-11T02:24:59;-5.90;99.90
8008;DHT22;4049;49.468;11.200;2024-01-11T02:27:26;-6.00;99.90
8008;DHT22;4049;49.468;11.200;2024-01-11T02:29:53;-6.00;99.90
8008;DHT22;4049;49.468;11.200;2024-01-11T02:32:20;-6.00;99.90
8008;DHT22;4049;49.468;11.200;2024-01-11T02:34:48;-6.00;99.90
8008;DHT22;4049;49.468;11.200;2024-01-11T02:37:15;-6.00;99.90
8008;DHT22;4049;49.468;11.200;2024-01-11T02:39:43;-6.10;99.90
8008;DHT22;4049;49.468;11.200;2024-01-11T02:42:11;-6.10;99.90
8008;DHT22;4049;49.468;11.200;2024-01-11T02:44:37;-6.10;99.90
8008;DHT22;4049;49.468;11.200;2024-01-11T02:47:04;-6.10;99.90
8008;DHT22;4049;49.468;11.200;2024-01-11T02:49:31;-6.10;99.90
8008;DHT22;4049;49.468;11.200;2024-01-11T02:51:58;-6.10;99.90
8008;DHT22;4049;49.468;11.200;2024-01-11T02:54:25;-6.20;99.90
8008;DHT22;4049;49.468;11.200;2024-01-11T02:56:52;-6.10;99.90
8008;DHT22;4049;49.468;11.200;2024-01-11T02:59:20;-6.10;99.90
8008;DHT22;4049;49.468;11.200;2024-01-11T03:01:47;-6.20;99.90
8008;DHT22;4049;49.468;11.200;2024-01-11T03:04:13;-6.20;99.90
8008;DHT22;4049;49.468;11.200;2024-01-11T03:06:40;-6.20;99.90
8008;DHT22;4049;49.468;11.200;2024-01-11T03:09:07;-6.20;99.90
8008;DHT22;4049;49.468;11.200;2024-01-11T03:11:34;-6.20;99.90
8008;DHT22;4049;49.468;11.200;2024-01-11T03:14:03;-6.30;99.90
8008;DHT22;4049;49.468;11.200;2024-01-11T03:16:31;-6.30;99.90
8008;DHT22;4049;49.468;11.200;2024-01-11T03:18:58;-6.30;99.90
8008;DHT22;4049;49.468;11.200;2024-01-11T03:21:24;-6.30;99.90
8008;DHT22;4049;49.468;11.200;2024-01-11T03:23:51;-6.30;99.90
8008;DHT22;4049;49.468;11.200;2024-01-11T03:26:18;-6.40;99.90
8008;DHT22;4049;49.468;11.200;2024-01-11T03:28:47;-6.40;99.90
8008;DHT22;4049;49.468;11.200;2024-01-11T03:31:14;-6.40;99.90
8008;DHT22;4049;49.468;11.200;2024-01-11T03:33:42;-6.50;99.90
8008;DHT22;4049;49.468;11.200;2024-01-11T03:36:09;-6.50;99.90
8008;DHT22;4049;49.468;11.200;2024-01-11T03:38:36;-6.50;99.90
8008;DHT22;4049;49.468;11.200;2024-01-11T03:41:08;-6.50;99.90
8008;DHT22;4049;49.468;11.200;2024-01-11T03:43:35;-6.60;99.90
8008;DHT22;4049;49.468;11.200;2024-01-11T03:46:02;-6.60;99.90
8008;DHT22;4049;49.468;11.200;2024-01-11T03:48:29;-6.60;99.90
8008;DHT22;4049;49.468;11.200;2024-01-11T03:50:57;-6.60;99.90
8008;DHT22;4049;49.468;11.200;2024-01-11T03:53:23;-6.60;99.90
8008;DHT22;4049;49.468;11.200;2024-01-11T03:55:50;-6.60;99.90
8008;DHT22;4049;49.468;11.200;2024-01-11T03:58:17;-6.70;99.90
8008;DHT22;4049;49.468;11.200;2024-01-11T04:00:44;-6.70;99.90
8008;DHT22;4049;49.468;11.200;2024-01-11T04:03:11;-6.70;99.90
8008;DHT22;4049;49.468;11.200;2024-01-11T04:05:37;-6.70;99.90
8008;DHT22;4049;49.468;11.200;2024-01-11T04:08:06;-6.70;99.90
8008;DHT22;4049;49.468;11.200;2024-01-11T04:10:33;-6.80;99.90
8008;DHT22;4049;49.468;11.200;2024-01-11T04:13:00;-6.80;99.90
8008;DHT22;4049;49.468;11.200;2024-01-11T04:15:27;-6.90;99.90
8008;DHT22;4049;49.468;11.200;2024-01-11T04:17:54;-6.90;99.90
8008;DHT22;4049;49.468;11.200;2024-01-11T04:20:21;-6.90;99.90
8008;DHT22;4049;49.468;11.200;2024-01-11T04:22:49;-6.90;99.90
8008;DHT22;4049;49.468;11.200;2024-01-11T04:25:17;-7.00;99.90
8008;DHT22;4049;49.468;11.200;2024-01-11T04:27:44;-7.00;99.90
8008;DHT22;4049;49.468;11.200;2024-01-11T04:30:11;-7.00;99.90
8008;DHT22;4049;49.468;11.200;2024-01-11T04:32:38;-6.90;99.90
8008;DHT22;4049;49.468;11.200;2024-01-11T04:35:05;-7.00;99.90
8008;DHT22;4049;49.468;11.200;2024-01-11T04:37:33;-7.00;99.90
8008;DHT22;4049;49.468;11.200;2024-01-11T04:40:00;-6.90;99.90
8008;DHT22;4049;49.468;11.200;2024-01-11T04:42:30;-7.00;99.90
8008;DHT22;4049;49.468;11.200;2024-01-11T04:44:57;-7.00;99.90
8008;DHT22;4049;49.468;11.200;2024-01-11T04:47:24;-7.00;99.90
8008;DHT22;4049;49.468;11.200;2024-01-11T04:49:51;-7.10;99.90
8008;DHT22;4049;49.468;11.200;2024-01-11T04:52:17;-7.10;99.90
8008;DHT22;4049;49.468;11.200;2024-01-11T04:54:44;-7.10;99.90
8008;DHT22;4049;49.468;11.200;2024-01-11T04:57:11;-7.10;99.90
8008;DHT22;4049;49.468;11.200;2024-01-11T04:59:39;-7.00;99.90
8008;DHT22;4049;49.468;11.200;2024-01-11T05:02:06;-7.10;99.90
8008;DHT22;4049;49.468;11.200;2024-01-11T05:04:33;-7.10;99.90
8008;DHT22;4049;49.468;11.200;2024-01-11T05:07:00;-7.10;99.90
8008;DHT22;4049;49.468;11.200;2024-01-11T05:09:27;-7.10;99.90
8008;DHT22;4049;49.468;11.200;2024-01-11T05:11:54;-7.10;99.90
8008;DHT22;4049;49.468;11.200;2024-01-11T05:14:20;-7.10;99.90
8008;DHT22;4049;49.468;11.200;2024-01-11T05:16:49;-7.10;99.90
8008;DHT22;4049;49.468;11.200;2024-01-11T05:19:20;-7.10;99.90
8008;DHT22;4049;49.468;11.200;2024-01-11T05:21:47;-7.10;99.90
8008;DHT22;4049;49.468;11.200;2024-01-11T05:24:14;-7.20;99.90
8008;DHT22;4049;49.468;11.200;2024-01-11T05:26:40;-7.20;99.90
8008;DHT22;4049;49.468;11.200;2024-01-11T05:29:07;-7.20;99.90
8008;DHT22;4049;49.468;11.200;2024-01-11T05:31:34;-7.20;99.90
8008;DHT22;4049;49.468;11.200;2024-01-11T05:34:03;-7.20;99.90
8008;DHT22;4049;49.468;11.200;2024-01-11T05:36:30;-7.30;99.90
8008;DHT22;4049;49.468;11.200;2024-01-11T05:38:56;-7.20;99.90
8008;DHT22;4049;49.468;11.200;2024-01-11T05:41:23;-7.20;99.90
8008;DHT22;4049;49.468;11.200;2024-01-11T05:43:50;-7.30;99.90
8008;DHT22;4049;49.468;11.200;2024-01-11T05:46:17;-7.20;99.90
8008;DHT22;4049;49.468;11.200;2024-01-11T05:48:44;-7.20;99.90
8008;DHT22;4049;49.468;11.200;2024-01-11T05:51:12;-7.20;99.90
8008;DHT22;4049;49.468;11.200;2024-01-11T05:53:39;-7.20;99.90
8008;DHT22;4049;49.468;11.200;2024-01-11T05:56:08;-7.20;99.90
8008;DHT22;4049;49.468;11.200;2024-01-11T05:58:36;-7.20;99.90
8008;DHT22;4049;49.468;11.200;2024-01-11T06:01:04;-7.20;99.90
8008;DHT22;4049;49.468;11.200;2024-01-11T06:03:30;-7.20;99.90
8008;DHT22;4049;49.468;11.200;2024-01-11T06:05:59;-7.30;99.90
8008;DHT22;4049;49.468;11.200;2024-01-11T06:08:29;-7.30;99.90
8008;DHT22;4049;49.468;11.200;2024-01-11T06:10:56;-7.30;99.90
8008;DHT22;4049;49.468;11.200;2024-01-11T06:13:22;-7.30;99.90
8008;DHT22;4049;49.468;11.200;2024-01-11T06:15:49;-7.40;99.90
8008;DHT22;4049;49.468;11.200;2024-01-11T06:18:16;-7.30;99.90
8008;DHT22;4049;49.468;11.200;2024-01-11T06:20:43;-7.30;99.90
8008;DHT22;4049;49.468;11.200;2024-01-11T06:23:10;-7.30;99.90
8008;DHT22;4049;49.468;11.200;2024-01-11T06:25:38;-7.30;99.90
8008;DHT22;4049;49.468;11.200;2024-01-11T06:28:06;-7.40;99.90
8008;DHT22;4049;49.468;11.200;2024-01-11T06:30:35;-7.40;99.90
8008;DHT22;4049;49.468;11.200;2024-01-11T06:33:02;-7.40;99.90
8008;DHT22;4049;49.468;11.200;2024-01-11T06:35:29;-7.50;99.90
8008;DHT22;4049;49.468;11.200;2024-01-11T06:37:56;-7.50;99.90
8008;DHT22;4049;49.468;11.200;2024-01-11T06:40:23;-7.50;99.90
8008;DHT22;4049;49.468;11.200;2024-01-11T06:42:51;-7.50;99.90
8008;DHT22;4049;49.468;11.200;2024-01-11T06:45:18;-7.50;99.90
8008;DHT22;4049;49.468;11.200;2024-01-11T06:47:45;-7.50;99.90
8008;DHT22;4049;49.468;11.200;2024-01-11T06:50:12;-7.50;99.90
8008;DHT22;4049;49.468;11.200;2024-01-11T06:52:39;-7.50;99.90
8008;DHT22;4049;49.468;11.200;2024-01-11T06:55:07;-7.50;99.90
8008;DHT22;4049;49.468;11.200;2024-01-11T06:57:34;-7.50;99.90
8008;DHT22;4049;49.468;11.200;2024-01-11T07:00:03;-7.50;99.90
8008;DHT22;4049;49.468;11.200;2024-01-11T07:02:33;-7.50;99.90
8008;DHT22;4049;49.468;11.200;2024-01-11T07:05:00;-7.50;99.90
8008;DHT22;4049;49.468;11.200;2024-01-11T07:07:27;-7.50;99.90
8008;DHT22;4049;49.468;11.200;2024-01-11T07:09:54;-7.50;99.90
8008;DHT22;4049;49.468;11.200;2024-01-11T07:12:21;-7.60;99.90
8008;DHT22;4049;49.468;11.200;2024-01-11T07:14:48;-7.60;99.90
8008;DHT22;4049;49.468;11.200;2024-01-11T07:17:16;-7.60;99.90
8008;DHT22;4049;49.468;11.200;2024-01-11T07:19:43;-7.60;99.90
8008;DHT22;4049;49.468;11.200;2024-01-11T07:22:10;-7.60;99.90
8008;DHT22;4049;49.468;11.200;2024-01-11T07:24:37;-7.60;99.90
8008;DHT22;4049;49.468;11.200;2024-01-11T07:27:04;-7.70;99.90
8008;DHT22;4049;49.468;11.200;2024-01-11T07:29:31;-7.70;99.90
8008;DHT22;4049;49.468;11.200;2024-01-11T07:31:58;-7.70;99.90
8008;DHT22;4049;49.468;11.200;2024-01-11T07:34:26;-7.70;99.90
8008;DHT22;4049;49.468;11.200;2024-01-11T07:36:53;-7.60;99.90
8008;DHT22;4049;49.468;11.200;2024-01-11T07:39:20;-7.60;99.90
8008;DHT22;4049;49.468;11.200;2024-01-11T07:41:48;-7.60;99.90
8008;DHT22;4049;49.468;11.200;2024-01-11T07:44:15;-7.70;99.90
8008;DHT22;4049;49.468;11.200;2024-01-11T07:46:42;-7.60;99.90
8008;DHT22;4049;49.468;11.200;2024-01-11T07:49:09;-7.60;99.90
8008;DHT22;4049;49.468;11.200;2024-01-11T07:51:38;-7.60;99.90
8008;DHT22;4049;49.468;11.200;2024-01-11T07:54:05;-7.60;99.90
8008;DHT22;4049;49.468;11.200;2024-01-11T07:56:32;-7.60;99.90
8008;DHT22;4049;49.468;11.200;2024-01-11T07:59:00;-7.60;99.90
8008;DHT22;4049;49.468;11.200;2024-01-11T08:01:27;-7.60;99.90
8008;DHT22;4049;49.468;11.200;2024-01-11T08:03:54;-7.60;99.90
8008;DHT22;4049;49.468;11.200;2024-01-11T08:06:21;-7.70;99.90
8008;DHT22;4049;49.468;11.200;2024-01-11T08:08:49;-7.60;99.90
8008;DHT22;4049;49.468;11.200;2024-01-11T08:11:17;-7.60;99.90
8008;DHT22;4049;49.468;11.200;2024-01-11T08:13:44;-7.60;99.90
8008;DHT22;4049;49.468;11.200;2024-01-11T08:16:15;-7.50;99.90
8008;DHT22;4049;49.468;11.200;2024-01-11T08:18:43;-7.50;99.90
8008;DHT22;4049;49.468;11.200;2024-01-11T08:21:11;-7.50;99.90
8008;DHT22;4049;49.468;11.200;2024-01-11T08:23:40;-7.50;99.90
8008;DHT22;4049;49.468;11.200;2024-01-11T08:26:11;-7.50;99.90
8008;DHT22;4049;49.468;11.200;2024-01-11T08:28:38;-7.50;99.90
8008;DHT22;4049;49.468;11.200;2024-01-11T08:31:05;-7.40;99.90
8008;DHT22;4049;49.468;11.200;2024-01-11T08:33:32;-7.40;99.90
8008;DHT22;4049;49.468;11.200;2024-01-11T08:35:59;-7.40;99.90
8008;DHT22;4049;49.468;11.200;2024-01-11T08:38:29;-7.30;99.90
8008;DHT22;4049;49.468;11.200;2024-01-11T08:40:56;-7.30;99.90
8008;DHT22;4049;49.468;11.200;2024-01-11T08:43:25;-7.20;99.90
8008;DHT22;4049;49.468;11.200;2024-01-11T08:45:52;-7.10;99.90
8008;DHT22;4049;49.468;11.200;2024-01-11T08:48:19;-7.10;99.90
8008;DHT22;4049;49.468;11.200;2024-01-11T08:50:46;-7.00;99.90
8008;DHT22;4049;49.468;11.200;2024-01-11T08:53:13;-7.00;99.90
8008;DHT22;4049;49.468;11.200;2024-01-11T08:55:41;-6.90;99.90
8008;DHT22;4049;49.468;11.200;2024-01-11T08:58:08;-6.80;99.90
8008;DHT22;4049;49.468;11.200;2024-01-11T09:00:37;-6.70;99.90
8008;DHT22;4049;49.468;11.200;2024-01-11T09:03:04;-6.60;99.90
8008;DHT22;4049;49.468;11.200;2024-01-11T09:05:31;-6.50;99.90
8008;DHT22;4049;49.468;11.200;2024-01-11T09:07:58;-6.40;99.90
8008;DHT22;4049;49.468;11.200;2024-01-11T09:10:25;-6.30;99.90
8008;DHT22;4049;49.468;11.200;2024-01-11T09:12:53;-6.30;99.90
8008;DHT22;4049;49.468;11.200;2024-01-11T09:15:20;-6.20;99.90
8008;DHT22;4049;49.468;11.200;2024-01-11T09:17:48;-6.20;99.90
8008;DHT22;4049;49.468;11.200;2024-01-11T09:20:16;-6.10;99.90
8008;DHT22;4049;49.468;11.200;2024-01-11T09:22:44;-6.00;99.90
8008;DHT22;4049;49.468;11.200;2024-01-11T09:25:12;-5.90;99.90
8008;DHT22;4049;49.468;11.200;2024-01-11T09:27:39;-5.90;99.90
8008;DHT22;4049;49.468;11.200;2024-01-11T09:30:08;-5.80;99.90
8008;DHT22;4049;49.468;11.200;2024-01-11T09:32:35;-5.70;99.90
8008;DHT22;4049;49.468;11.200;2024-01-11T09:35:04;-5.70;99.90
8008;DHT22;4049;49.468;11.200;2024-01-11T09:37:31;-5.60;99.90
8008;DHT22;4049;49.468;11.200;2024-01-11T09:39:58;-5.60;99.90
8008;DHT22;4049;49.468;11.200;2024-01-11T09:42:28;-5.50;99.90
8008;DHT22;4049;49.468;11.200;2024-01-11T09:44:56;-5.40;99.90
8008;DHT22;4049;49.468;11.200;2024-01-11T09:47:24;-5.40;99.90
8008;DHT22;4049;49.468;11.200;2024-01-11T09:49:53;-5.20;99.90
8008;DHT22;4049;49.468;11.200;2024-01-11T09:52:22;-5.10;99.90
8008;DHT22;4049;49.468;11.200;2024-01-11T09:54:51;-5.00;99.90
8008;DHT22;4049;49.468;11.200;2024-01-11T09:57:24;-4.80;99.90
8008;DHT22;4049;49.468;11.200;2024-01-11T09:59:55;-4.60;99.90
8008;DHT22;4049;49.468;11.200;2024-01-11T10:02:23;-4.50;99.90
8008;DHT22;4049;49.468;11.200;2024-01-11T10:04:50;-4.30;99.90
8008;DHT22;4049;49.468;11.200;2024-01-11T10:07:18;-4.20;99.90
8008;DHT22;4049;49.468;11.200;2024-01-11T10:09:48;-4.00;99.90
8008;DHT22;4049;49.468;11.200;2024-01-11T10:12:15;-3.90;99.90
8008;DHT22;4049;49.468;11.200;2024-01-11T10:14:42;-3.80;99.90
8008;DHT22;4049;49.468;11.200;2024-01-11T10:17:08;-3.80;99.90
8008;DHT22;4049;49.468;11.200;2024-01-11T10:19:36;-3.70;99.90
8008;DHT22;4049;49.468;11.200;2024-01-11T10:22:03;-3.70;99.90
8008;DHT22;4049;49.468;11.200;2024-01-11T10:24:31;-3.60;99.90
8008;DHT22;4049;49.468;11.200;2024-01-11T10:26:59;-3.50;99.90
8008;DHT22;4049;49.468;11.200;2024-01-11T10:29:30;-3.40;99.90
8008;DHT22;4049;49.468;11.200;2024-01-11T10:31:57;-3.30;99.90
8008;DHT22;4049;49.468;11.200;2024-01-11T10:34:24;-3.20;99.90
8008;DHT22;4049;49.468;11.200;2024-01-11T10:36:51;-3.00;99.90
8008;DHT22;4049;49.468;11.200;2024-01-11T10:39:21;-3.00;99.90
8008;DHT22;4049;49.468;11.200;2024-01-11T10:41:51;-2.80;99.90
8008;DHT22;4049;49.468;11.200;2024-01-11T10:44:21;-2.60;99.90
8008;DHT22;4049;49.468;11.200;2024-01-11T10:46:49;-2.40;99.90
8008;DHT22;4049;49.468;11.200;2024-01-11T10:49:18;-2.20;99.90
8008;DHT22;4049;49.468;11.200;2024-01-11T10:51:52;-2.10;99.90
8008;DHT22;4049;49.468;11.200;2024-01-11T10:54:20;-2.00;99.90
8008;DHT22;4049;49.468;11.200;2024-01-11T10:56:48;-1.90;99.90
8008;DHT22;4049;49.468;11.200;2024-01-11T10:59:16;-1.70;99.90
8008;DHT22;4049;49.468;11.200;2024-01-11T11:01:46;-1.60;99.90
8008;DHT22;4049;49.468;11.200;2024-01-11T11:04:15;-1.40;99.90
8008;DHT22;4049;49.468;11.200;2024-01-11T11:06:43;-1.30;99.90
8008;DHT22;4049;49.468;11.200;2024-01-11T11:09:11;-1.20;99.90
8008;DHT22;4049;49.468;11.200;2024-01-11T11:11:38;-1.00;99.90
8008;DHT22;4049;49.468;11.200;2024-01-11T11:14:06;-0.80;99.90
8008;DHT22;4049;49.468;11.200;2024-01-11T11:16:34;-0.70;99.90
8008;DHT22;4049;49.468;11.200;2024-01-11T11:19:02;-0.50;99.90
8008;DHT22;4049;49.468;11.200;2024-01-11T11:21:29;-0.30;99.90
8008;DHT22;4049;49.468;11.200;2024-01-11T11:23:56;0.00;99.90
8008;DHT22;4049;49.468;11.200;2024-01-11T11:26:26;0.20;99.90
8008;DHT22;4049;49.468;11.200;2024-01-11T11:28:53;0.30;99.90
8008;DHT22;4049;49.468;11.200;2024-01-11T11:31:34;0.50;99.90
8008;DHT22;4049;49.468;11.200;2024-01-11T11:34:04;0.70;99.90
8008;DHT22;4049;49.468;11.200;2024-01-11T11:36:33;0.80;99.90
8008;DHT22;4049;49.468;11.200;2024-01-11T11:39:01;0.90;99.90
8008;DHT22;4049;49.468;11.200;2024-01-11T11:41:30;0.90;99.90
8008;DHT22;4049;49.468;11.200;2024-01-11T11:44:01;1.10;99.90
8008;DHT22;4049;49.468;11.200;2024-01-11T11:46:28;1.20;99.90
8008;DHT22;4049;49.468;11.200;2024-01-11T11:48:55;1.30;99.90
8008;DHT22;4049;49.468;11.200;2024-01-11T11:51:31;1.40;99.90
8008;DHT22;4049;49.468;11.200;2024-01-11T11:54:00;1.50;99.90
8008;DHT22;4049;49.468;11.200;2024-01-11T11:56:28;1.50;99.90
8008;DHT22;4049;49.468;11.200;2024-01-11T11:58:56;1.60;99.90
8008;DHT22;4049;49.468;11.200;2024-01-11T12:01:23;1.70;99.90
8008;DHT22;4049;49.468;11.200;2024-01-11T12:03:50;1.90;99.90
8008;DHT22;4049;49.468;11.200;2024-01-11T12:06:18;2.10;99.90
8008;DHT22;4049;49.468;11.200;2024-01-11T12:08:47;2.30;99.90
8008;DHT22;4049;49.468;11.200;2024-01-11T12:11:17;2.40;99.90
8008;DHT22;4049;49.468;11.200;2024-01-11T12:13:44;2.50;99.90
8008;DHT22;4049;49.468;11.200;2024-01-11T12:16:11;2.60;99.90
8008;DHT22;4049;49.468;11.200;2024-01-11T12:18:39;2.60;99.90
8008;DHT22;4049;49.468;11.200;2024-01-11T12:21:06;2.70;99.90
8008;DHT22;4049;49.468;11.200;2024-01-11T12:23:34;2.70;99.90
8008;DHT22;4049;49.468;11.200;2024-01-11T12:26:06;2.70;99.90
8008;DHT22;4049;49.468;11.200;2024-01-11T12:28:38;2.60;99.90
8008;DHT22;4049;49.468;11.200;2024-01-11T12:31:05;2.60;99.90
8008;DHT22;4049;49.468;11.200;2024-01-11T12:33:32;2.70;99.90
8008;DHT22;4049;49.468;11.200;2024-01-11T12:36:00;2.80;99.90
8008;DHT22;4049;49.468;11.200;2024-01-11T12:38:27;2.90;99.90
8008;DHT22;4049;49.468;11.200;2024-01-11T12:40:54;3.00;99.90
8008;DHT22;4049;49.468;11.200;2024-01-11T12:43:22;3.20;99.90
8008;DHT22;4049;49.468;11.200;2024-01-11T12:45:49;3.30;99.90
8008;DHT22;4049;49.468;11.200;2024-01-11T12:48:16;3.40;99.90
8008;DHT22;4049;49.468;11.200;2024-01-11T12:50:44;3.50;99.90
8008;DHT22;4049;49.468;11.200;2024-01-11T12:53:12;3.50;99.90
8008;DHT22;4049;49.468;11.200;2024-01-11T12:55:43;3.50;99.90
8008;DHT22;4049;49.468;11.200;2024-01-11T12:58:10;3.70;99.90
8008;DHT22;4049;49.468;11.200;2024-01-11T13:00:39;3.80;99.70
8008;DHT22;4049;49.468;11.200;2024-01-11T13:03:06;3.90;99.90
8008;DHT22;4049;49.468;11.200;2024-01-11T13:05:35;4.00;99.10
8008;DHT22;4049;49.468;11.200;2024-01-11T13:08:02;4.10;95.90
8008;DHT22;4049;49.468;11.200;2024-01-11T13:10:30;4.10;98.20
8008;DHT22;4049;49.468;11.200;2024-01-11T13:12:58;4.20;97.60
8008;DHT22;4049;49.468;11.200;2024-01-11T13:15:25;4.30;98.60
8008;DHT22;4049;49.468;11.200;2024-01-11T13:17:55;4.20;97.80
8008;DHT22;4049;49.468;11.200;2024-01-11T13:20:22;4.20;97.30
8008;DHT22;4049;49.468;11.200;2024-01-11T13:22:53;4.10;96.60
8008;DHT22;4049;49.468;11.200;2024-01-11T13:25:20;4.00;98.10
8008;DHT22;4049;49.468;11.200;2024-01-11T13:27:47;3.80;97.00
8008;DHT22;4049;49.468;11.200;2024-01-11T13:30:14;3.60;98.40
8008;DHT22;4049;49.468;11.200;2024-01-11T13:32:42;3.50;99.30
8008;DHT22;4049;49.468;11.200;2024-01-11T13:35:10;3.40;98.40
8008;DHT22;4049;49.468;11.200;2024-01-11T13:37:37;3.30;98.00
8008;DHT22;4049;49.468;11.200;2024-01-11T13:40:05;3.30;98.30
8008;DHT22;4049;49.468;11.200;2024-01-11T13:42:32;3.30;98.10
8008;DHT22;4049;49.468;11.200;2024-01-11T13:44:58;3.40;98.80
8008;DHT22;4049;49.468;11.200;2024-01-11T13:47:25;3.40;98.50
8008;DHT22;4049;49.468;11.200;2024-01-11T13:49:52;3.60;97.30
8008;DHT22;4049;49.468;11.200;2024-01-11T13:52:20;3.80;94.80
8008;DHT22;4049;49.468;11.200;2024-01-11T13:54:47;4.10;94.10
8008;DHT22;4049;49.468;11.200;2024-01-11T13:57:14;4.30;94.60
8008;DHT22;4049;49.468;11.200;2024-01-11T13:59:41;4.40;96.10
8008;DHT22;4049;49.468;11.200;2024-01-11T14:02:08;4.60;95.40
8008;DHT22;4049;49.468;11.200;2024-01-11T14:04:34;4.70;94.70
8008;DHT22;4049;49.468;11.200;2024-01-11T14:07:01;4.70;91.20
8008;DHT22;4049;49.468;11.200;2024-01-11T14:09:30;4.90;90.70
8008;DHT22;4049;49.468;11.200;2024-01-11T14:11:57;4.80;92.90
8008;DHT22;4049;49.468;11.200;2024-01-11T14:14:24;4.80;91.80
8008;DHT22;4049;49.468;11.200;2024-01-11T14:16:50;4.80;92.00
8008;DHT22;4049;49.468;11.200;2024-01-11T14:19:17;4.90;92.10
8008;DHT22;4049;49.468;11.200;2024-01-11T14:21:44;4.90;87.00
8008;DHT22;4049;49.468;11.200;2024-01-11T14:24:11;5.00;91.10
8008;DHT22;4049;49.468;11.200;2024-01-11T14:26:39;4.90;89.90
8008;DHT22;4049;49.468;11.200;2024-01-11T14:29:06;5.00;90.60
8008;DHT22;4049;49.468;11.200;2024-01-11T14:31:34;4.90;90.70
8008;DHT22;4049;49.468;11.200;2024-01-11T14:34:01;4.70;90.50
8008;DHT22;4049;49.468;11.200;2024-01-11T14:36:28;4.50;91.30
8008;DHT22;4049;49.468;11.200;2024-01-11T14:38:55;4.40;90.90
8008;DHT22;4049;49.468;11.200;2024-01-11T14:41:22;4.20;91.70
8008;DHT22;4049;49.468;11.200;2024-01-11T14:43:50;4.00;93.00
8008;DHT22;4049;49.468;11.200;2024-01-11T14:46:17;3.80;93.10
8008;DHT22;4049;49.468;11.200;2024-01-11T14:48:44;3.60;94.30
8008;DHT22;4049;49.468;11.200;2024-01-11T14:51:11;3.50;94.30
8008;DHT22;4049;49.468;11.200;2024-01-11T14:53:38;3.30;94.90
8008;DHT22;4049;49.468;11.200;2024-01-11T14:56:05;3.30;96.40
8008;DHT22;4049;49.468;11.200;2024-01-11T14:58:32;3.30;96.40
8008;DHT22;4049;49.468;11.200;2024-01-11T15:01:01;3.50;96.40
8008;DHT22;4049;49.468;11.200;2024-01-11T15:03:29;3.60;95.40
8008;DHT22;4049;49.468;11.200;2024-01-11T15:05:56;3.60;95.00
8008;DHT22;4049;49.468;11.200;2024-01-11T15:08:23;3.50;94.90
8008;DHT22;4049;49.468;11.200;2024-01-11T15:10:49;3.20;95.80
8008;DHT22;4049;49.468;11.200;2024-01-11T15:13:16;3.00;95.60
8008;DHT22;4049;49.468;11.200;2024-01-11T15:15:43;2.80;96.70
8008;DHT22;4049;49.468;11.200;2024-01-11T15:18:11;2.60;97.60
8008;DHT22;4049;49.468;11.200;2024-01-11T15:20:38;2.40;98.10
8008;DHT22;4049;49.468;11.200;2024-01-11T15:23:05;2.30;98.30
8008;DHT22;4049;49.468;11.200;2024-01-11T15:25:32;2.20;99.10
8008;DHT22;4049;49.468;11.200;2024-01-11T15:27:59;2.10;99.00
8008;DHT22;4049;49.468;11.200;2024-01-11T15:30:26;2.00;99.50
8008;DHT22;4049;49.468;11.200;2024-01-11T15:32:53;1.80;99.90
8008;DHT22;4049;49.468;11.200;2024-01-11T15:35:21;1.70;99.90
8008;DHT22;4049;49.468;11.200;2024-01-11T15:37:48;1.60;99.90
8008;DHT22;4049;49.468;11.200;2024-01-11T15:40:15;1.50;99.90
8008;DHT22;4049;49.468;11.200;2024-01-11T15:42:42;1.40;99.90
8008;DHT22;4049;49.468;11.200;2024-01-11T15:45:09;1.30;99.90
8008;DHT22;4049;49.468;11.200;2024-01-11T15:47:37;1.30;99.90
8008;DHT22;4049;49.468;11.200;2024-01-11T15:50:04;1.20;99.90
8008;DHT22;4049;49.468;11.200;2024-01-11T15:52:36;1.10;99.90